sensor_id;sensor_type;location;lat;lon;timestamp;temperature;humidity
46932;DHT22;32670;51.464;11.964;2023-01-20T00:01:42;21.50;51.60
46932;DHT22;32670;51.464;11.964;2023-01-20T00:04:11;21.50;51.60
46932;DHT22;32670;51.464;11.964;2023-01-20T00:06:37;21.60;51.80
46932;DHT22;32670;51.464;11.964;2023-01-20T00:09:03;21.60;51.80
46932;DHT22;32670;51.464;11.964;2023-01-20T00:11:29;21.50;51.90
46932;DHT22;32670;51.464;11.964;2023-01-20T00:13:57;21.50;51.90
46932;DHT22;32670;51.464;11.964;2023-01-20T00:16:23;21.50;52.00
46932;DHT22;32670;51.464;11.964;2023-01-20T00:18:49;21.60;52.10
46932;DHT22;32670;51.464;11.964;2023-01-20T00:21:15;21.50;52.00
46932;DHT22;32670;51.464;11.964;2023-01-20T00:23:44;21.60;52.20
46932;DHT22;32670;51.464;11.964;2023-01-20T00:26:15;21.60;52.40
46932;DHT22;32670;51.464;11.964;2023-01-20T00:28:41;21.60;52.70
46932;DHT22;32670;51.464;11.964;2023-01-20T00:31:15;21.60;52.30
46932;DHT22;32670;51.464;11.964;2023-01-20T00:33:41;21.60;52.40
46932;DHT22;32670;51.464;11.964;2023-01-20T00:36:07;21.60;52.40
46932;DHT22;32670;51.464;11.964;2023-01-20T00:38:33;21.60;52.50
46932;DHT22;32670;51.464;11.964;2023-01-20T00:40:59;21.60;52.40
46932;DHT22;32670;51.464;11.964;2023-01-20T00:43:24;21.60;52.40
46932;DHT22;32670;51.464;11.964;2023-01-20T00:45:50;21.60;52.60
46932;DHT22;32670;51.464;11.964;2023-01-20T00:48:16;21.60;52.70
46932;DHT22;32670;51.464;11.964;2023-01-20T00:50:41;21.70;52.60
46932;DHT22;32670;51.464;11.964;2023-01-20T00:53:06;21.70;52.60
46932;DHT22;32670;51.464;11.964;2023-01-20T00:55:32;21.70;52.60
46932;DHT22;32670;51.464;11.964;2023-01-20T00:57:57;21.70;52.60
46932;DHT22;32670;51.464;11.964;2023-01-20T01:00:23;21.70;52.70
46932;DHT22;32670;51.464;11.964;2023-01-20T01:02:48;21.70;52.70
46932;DHT22;32670;51.464;11.964;2023-01-20T01:05:14;21.70;52.70
46932;DHT22;32670;51.464;11.964;2023-01-20T01:07:39;21.70;52.80
46932;DHT22;32670;51.464;11.964;2023-01-20T01:10:05;21.70;53.10
46932;DHT22;32670;51.464;11.964;2023-01-20T01:12:31;21.70;52.70
46932;DHT22;32670;51.464;11.964;2023-01-20T01:14:56;21.70;52.70
46932;DHT22;32670;51.464;11.964;2023-01-20T01:17:22;21.70;52.70
46932;DHT22;32670;51.464;11.964;2023-01-20T01:19:50;21.70;52.70
46932;DHT22;32670;51.464;11.964;2023-01-20T01:22:15;21.70;52.70
46932;DHT22;32670;51.464;11.964;2023-01-20T01:24:42;21.70;52.60
46932;DHT22;32670;51.464;11.964;2023-01-20T01:27:08;21.70;52.70
46932;DHT22;32670;51.464;11.964;2023-01-20T01:29:34;21.70;52.60
46932;DHT22;32670;51.464;11.964;2023-01-20T01:31:59;21.80;52.90
46932;DHT22;32670;51.464;11.964;2023-01-20T01:34:25;21.80;52.80
46932;DHT22;32670;51.464;11.964;2023-01-20T01:36:50;21.80;53.00
46932;DHT22;32670;51.464;11.964;2023-01-20T01:39:16;21.80;53.00
46932;DHT22;32670;51.464;11.964;2023-01-20T01:41:41;21.70;53.20
46932;DHT22;32670;51.464;11.964;2023-01-20T01:44:09;21.80;53.20
46932;DHT22;32670;51.464;11.964;2023-01-20T01:46:35;21.70;53.20
46932;DHT22;32670;51.464;11.964;2023-01-20T01:49:36;21.70;53.30
46932;DHT22;32670;51.464;11.964;2023-01-20T01:52:05;21.80;53.70
46932;DHT22;32670;51.464;11.964;2023-01-20T01:54:38;21.80;53.50
46932;DHT22;32670;51.464;11.964;2023-01-20T01:57:06;21.80;53.60
46932;DHT22;32670;51.464;11.964;2023-01-20T01:59:32;21.80;53.90
46932;DHT22;32670;51.464;11.964;2023-01-20T02:01:58;21.80;53.70
46932;DHT22;32670;51.464;11.964;2023-01-20T02:04:25;21.80;53.50
46932;DHT22;32670;51.464;11.964;2023-01-20T02:06:55;21.80;51.90
46932;DHT22;32670;51.464;11.964;2023-01-20T02:09:22;21.80;52.40
46932;DHT22;32670;51.464;11.964;2023-01-20T02:11:51;21.80;53.20
46932;DHT22;32670;51.464;11.964;2023-01-20T02:14:20;21.80;53.00
46932;DHT22;32670;51.464;11.964;2023-01-20T02:17:11;21.80;53.30
46932;DHT22;32670;51.464;11.964;2023-01-20T02:22:56;21.80;53.50
46932;DHT22;32670;51.464;11.964;2023-01-20T02:25:43;21.80;53.40
46932;DHT22;32670;51.464;11.964;2023-01-20T02:33:30;21.80;53.50
46932;DHT22;32670;51.464;11.964;2023-01-20T02:36:10;21.80;53.50
46932;DHT22;32670;51.464;11.964;2023-01-20T02:38:55;21.80;53.70
46932;DHT22;32670;51.464;11.964;2023-01-20T02:41:35;21.80;53.70
46932;DHT22;32670;51.464;11.964;2023-01-20T02:44:16;21.80;53.80
46932;DHT22;32670;51.464;11.964;2023-01-20T02:46:57;21.80;53.90
46932;DHT22;32670;51.464;11.964;2023-01-20T02:49:25;21.80;53.70
46932;DHT22;32670;51.464;11.964;2023-01-20T02:52:11;21.80;53.50
46932;DHT22;32670;51.464;11.964;2023-01-20T02:54:41;21.80;53.80
46932;DHT22;32670;51.464;11.964;2023-01-20T02:57:11;21.80;53.60
46932;DHT22;32670;51.464;11.964;2023-01-20T02:59:42;21.80;53.60
46932;DHT22;32670;51.464;11.964;2023-01-20T03:02:14;21.80;53.60
46932;DHT22;32670;51.464;11.964;2023-01-20T03:04:47;21.80;53.70
46932;DHT22;32670;51.464;11.964;2023-01-20T03:07:14;21.80;53.50
46932;DHT22;32670;51.464;11.964;2023-01-20T03:09:44;21.80;53.70
46932;DHT22;32670;51.464;11.964;2023-01-20T03:14:49;21.90;53.80
46932;DHT22;32670;51.464;11.964;2023-01-20T03:17:16;21.80;53.80
46932;DHT22;32670;51.464;11.964;2023-01-20T03:19:42;21.80;53.90
46932;DHT22;32670;51.464;11.964;2023-01-20T03:22:07;21.80;53.80
46932;DHT22;32670;51.464;11.964;2023-01-20T03:24:33;21.90;54.20
46932;DHT22;32670;51.464;11.964;2023-01-20T03:26:59;21.80;53.80
46932;DHT22;32670;51.464;11.964;2023-01-20T03:29:25;21.80;52.90
46932;DHT22;32670;51.464;11.964;2023-01-20T03:31:54;21.90;54.20
46932;DHT22;32670;51.464;11.964;2023-01-20T03:34:22;21.90;54.20
46932;DHT22;32670;51.464;11.964;2023-01-20T03:36:48;21.90;54.30
46932;DHT22;32670;51.464;11.964;2023-01-20T03:39:14;21.90;54.20
46932;DHT22;32670;51.464;11.964;2023-01-20T03:41:51;21.90;54.20
46932;DHT22;32670;51.464;11.964;2023-01-20T03:44:42;21.90;54.30
46932;DHT22;32670;51.464;11.964;2023-01-20T03:50:05;21.90;54.50
46932;DHT22;32670;51.464;11.964;2023-01-20T03:52:49;21.90;54.50
46932;DHT22;32670;51.464;11.964;2023-01-20T03:55:31;21.90;54.60
46932;DHT22;32670;51.464;11.964;2023-01-20T03:58:03;22.00;54.60
46932;DHT22;32670;51.464;11.964;2023-01-20T04:00:32;21.90;54.60
46932;DHT22;32670;51.464;11.964;2023-01-20T04:03:02;21.90;54.60
46932;DHT22;32670;51.464;11.964;2023-01-20T04:05:29;21.90;54.60
46932;DHT22;32670;51.464;11.964;2023-01-20T04:07:56;21.90;54.70
46932;DHT22;32670;51.464;11.964;2023-01-20T04:10:24;21.90;54.80
46932;DHT22;32670;51.464;11.964;2023-01-20T04:12:51;21.90;54.70
46932;DHT22;32670;51.464;11.964;2023-01-20T04:15:18;21.90;54.90
46932;DHT22;32670;51.464;11.964;2023-01-20T04:17:44;21.90;55.00
46932;DHT22;32670;51.464;11.964;2023-01-20T04:20:11;21.90;55.10
46932;DHT22;32670;51.464;11.964;2023-01-20T04:22:50;21.90;55.10
46932;DHT22;32670;51.464;11.964;2023-01-20T04:25:26;22.00;55.40
46932;DHT22;32670;51.464;11.964;2023-01-20T04:27:51;22.00;55.40
46932;DHT22;32670;51.464;11.964;2023-01-20T04:30:17;21.90;55.20
46932;DHT22;32670;51.464;11.964;2023-01-20T04:32:43;21.90;55.10
46932;DHT22;32670;51.464;11.964;2023-01-20T04:35:12;21.90;55.10
46932;DHT22;32670;51.464;11.964;2023-01-20T04:37:38;22.00;55.20
46932;DHT22;32670;51.464;11.964;2023-01-20T04:40:03;21.90;55.20
46932;DHT22;32670;51.464;11.964;2023-01-20T04:42:29;22.00;55.40
46932;DHT22;32670;51.464;11.964;2023-01-20T04:44:54;21.90;55.20
46932;DHT22;32670;51.464;11.964;2023-01-20T04:47:20;21.90;55.40
46932;DHT22;32670;51.464;11.964;2023-01-20T04:49:45;22.00;55.60
46932;DHT22;32670;51.464;11.964;2023-01-20T04:52:11;21.90;55.30
46932;DHT22;32670;51.464;11.964;2023-01-20T04:54:36;21.90;55.30
46932;DHT22;32670;51.464;11.964;2023-01-20T04:57:02;21.90;55.40
46932;DHT22;32670;51.464;11.964;2023-01-20T04:59:27;21.90;55.50
46932;DHT22;32670;51.464;11.964;2023-01-20T05:01:53;21.90;55.50
46932;DHT22;32670;51.464;11.964;2023-01-20T05:04:18;21.90;55.50
46932;DHT22;32670;51.464;11.964;2023-01-20T05:06:44;21.90;55.30
46932;DHT22;32670;51.464;11.964;2023-01-20T05:09:12;21.90;55.30
46932;DHT22;32670;51.464;11.964;2023-01-20T05:11:38;21.90;55.30
46932;DHT22;32670;51.464;11.964;2023-01-20T05:14:04;21.90;55.50
46932;DHT22;32670;51.464;11.964;2023-01-20T05:16:29;21.90;55.30
46932;DHT22;32670;51.464;11.964;2023-01-20T05:18:56;21.90;55.40
46932;DHT22;32670;51.464;11.964;2023-01-20T05:21:22;21.90;55.80
46932;DHT22;32670;51.464;11.964;2023-01-20T05:23:48;21.90;55.20
46932;DHT22;32670;51.464;11.964;2023-01-20T05:26:13;21.90;55.50
46932;DHT22;32670;51.464;11.964;2023-01-20T05:28:38;21.90;55.50
46932;DHT22;32670;51.464;11.964;2023-01-20T05:31:04;22.00;56.00
46932;DHT22;32670;51.464;11.964;2023-01-20T05:33:29;21.90;55.80
46932;DHT22;32670;51.464;11.964;2023-01-20T05:35:55;21.90;55.80
46932;DHT22;32670;51.464;11.964;2023-01-20T05:38:20;22.00;55.80
46932;DHT22;32670;51.464;11.964;2023-01-20T05:40:46;21.90;55.70
46932;DHT22;32670;51.464;11.964;2023-01-20T05:43:11;21.90;55.70
46932;DHT22;32670;51.464;11.964;2023-01-20T05:45:37;22.00;56.00
46932;DHT22;32670;51.464;11.964;2023-01-20T05:48:02;22.00;56.00
46932;DHT22;32670;51.464;11.964;2023-01-20T05:50:28;22.00;55.80
46932;DHT22;32670;51.464;11.964;2023-01-20T05:52:54;22.00;55.70
46932;DHT22;32670;51.464;11.964;2023-01-20T05:55:20;22.00;55.80
46932;DHT22;32670;51.464;11.964;2023-01-20T05:57:45;22.00;55.80
46932;DHT22;32670;51.464;11.964;2023-01-20T06:00:11;22.00;56.00
46932;DHT22;32670;51.464;11.964;2023-01-20T06:02:38;22.00;56.00
46932;DHT22;32670;51.464;11.964;2023-01-20T06:05:04;22.00;56.10
46932;DHT22;32670;51.464;11.964;2023-01-20T06:07:30;22.00;56.20
46932;DHT22;32670;51.464;11.964;2023-01-20T06:09:56;22.00;56.00
46932;DHT22;32670;51.464;11.964;2023-01-20T06:12:22;22.00;54.20
46932;DHT22;32670;51.464;11.964;2023-01-20T06:14:48;22.10;55.70
46932;DHT22;32670;51.464;11.964;2023-01-20T06:17:13;22.00;54.20
46932;DHT22;32670;51.464;11.964;2023-01-20T06:19:39;22.10;53.90
46932;DHT22;32670;51.464;11.964;2023-01-20T06:22:06;22.10;53.50
46932;DHT22;32670;51.464;11.964;2023-01-20T06:24:32;22.10;53.80
46932;DHT22;32670;51.464;11.964;2023-01-20T06:26:57;21.90;43.50
46932;DHT22;32670;51.464;11.964;2023-01-20T06:29:23;21.40;37.70
46932;DHT22;32670;51.464;11.964;2023-01-20T06:31:48;21.00;35.10
46932;DHT22;32670;51.464;11.964;2023-01-20T06:34:13;20.60;33.50
46932;DHT22;32670;51.464;11.964;2023-01-20T06:36:39;20.20;32.60
46932;DHT22;32670;51.464;11.964;2023-01-20T06:39:05;19.90;32.20
46932;DHT22;32670;51.464;11.964;2023-01-20T06:41:30;19.70;32.10
46932;DHT22;32670;51.464;11.964;2023-01-20T06:43:56;19.50;31.50
46932;DHT22;32670;51.464;11.964;2023-01-20T06:46:21;19.30;31.60
46932;DHT22;32670;51.464;11.964;2023-01-20T06:48:47;19.20;31.30
46932;DHT22;32670;51.464;11.964;2023-01-20T06:51:18;19.00;31.30
46932;DHT22;32670;51.464;11.964;2023-01-20T06:53:44;18.80;31.20
46932;DHT22;32670;51.464;11.964;2023-01-20T06:56:12;18.70;31.00
46932;DHT22;32670;51.464;11.964;2023-01-20T06:58:38;18.60;31.20
46932;DHT22;32670;51.464;11.964;2023-01-20T07:01:07;18.50;31.40
46932;DHT22;32670;51.464;11.964;2023-01-20T07:03:33;18.40;31.40
46932;DHT22;32670;51.464;11.964;2023-01-20T07:06:01;18.30;31.40
46932;DHT22;32670;51.464;11.964;2023-01-20T07:08:27;18.20;31.70
46932;DHT22;32670;51.464;11.964;2023-01-20T07:10:53;18.20;31.80
46932;DHT22;32670;51.464;11.964;2023-01-20T07:13:18;18.10;31.60
46932;DHT22;32670;51.464;11.964;2023-01-20T07:15:44;18.00;31.80
46932;DHT22;32670;51.464;11.964;2023-01-20T07:18:10;18.00;31.90
46932;DHT22;32670;51.464;11.964;2023-01-20T07:20:35;17.90;32.00
46932;DHT22;32670;51.464;11.964;2023-01-20T07:23:03;17.90;32.40
46932;DHT22;32670;51.464;11.964;2023-01-20T07:25:28;17.80;32.30
46932;DHT22;32670;51.464;11.964;2023-01-20T07:27:54;17.70;32.40
46932;DHT22;32670;51.464;11.964;2023-01-20T07:30:22;17.70;32.40
46932;DHT22;32670;51.464;11.964;2023-01-20T07:32:47;17.70;32.30
46932;DHT22;32670;51.464;11.964;2023-01-20T07:35:13;17.60;32.20
46932;DHT22;32670;51.464;11.964;2023-01-20T07:37:38;17.60;32.10
46932;DHT22;32670;51.464;11.964;2023-01-20T07:40:06;17.50;32.80
46932;DHT22;32670;51.464;11.964;2023-01-20T07:42:31;17.60;34.70
46932;DHT22;32670;51.464;11.964;2023-01-20T07:44:57;17.80;35.40
46932;DHT22;32670;51.464;11.964;2023-01-20T07:47:22;18.10;35.80
46932;DHT22;32670;51.464;11.964;2023-01-20T07:49:48;18.20;36.20
46932;DHT22;32670;51.464;11.964;2023-01-20T07:52:13;18.40;36.60
46932;DHT22;32670;51.464;11.964;2023-01-20T07:54:39;18.60;36.80
46932;DHT22;32670;51.464;11.964;2023-01-20T07:57:04;18.70;37.20
46932;DHT22;32670;51.464;11.964;2023-01-20T07:59:29;18.80;37.50
46932;DHT22;32670;51.464;11.964;2023-01-20T08:01:55;18.90;37.70
46932;DHT22;32670;51.464;11.964;2023-01-20T08:04:20;19.00;37.90
46932;DHT22;32670;51.464;11.964;2023-01-20T08:06:46;19.10;38.10
46932;DHT22;32670;51.464;11.964;2023-01-20T08:09:12;19.10;38.20
46932;DHT22;32670;51.464;11.964;2023-01-20T08:11:39;19.10;38.40
46932;DHT22;32670;51.464;11.964;2023-01-20T08:14:05;19.20;38.60
46932;DHT22;32670;51.464;11.964;2023-01-20T08:16:30;19.30;38.80
46932;DHT22;32670;51.464;11.964;2023-01-20T08:18:56;19.30;39.00
46932;DHT22;32670;51.464;11.964;2023-01-20T08:21:27;19.30;39.10
46932;DHT22;32670;51.464;11.964;2023-01-20T08:24:01;19.30;39.10
46932;DHT22;32670;51.464;11.964;2023-01-20T08:26:28;19.40;39.40
46932;DHT22;32670;51.464;11.964;2023-01-20T08:28:54;19.40;39.60
46932;DHT22;32670;51.464;11.964;2023-01-20T08:31:22;19.50;39.70
46932;DHT22;32670;51.464;11.964;2023-01-20T08:33:50;19.50;39.80
46932;DHT22;32670;51.464;11.964;2023-01-20T08:36:19;19.50;39.90
46932;DHT22;32670;51.464;11.964;2023-01-20T08:38:45;19.50;40.10
46932;DHT22;32670;51.464;11.964;2023-01-20T08:41:13;19.60;40.20
46932;DHT22;32670;51.464;11.964;2023-01-20T08:43:41;19.60;40.30
46932;DHT22;32670;51.464;11.964;2023-01-20T08:46:09;19.60;40.40
46932;DHT22;32670;51.464;11.964;2023-01-20T08:48:36;19.60;40.30
46932;DHT22;32670;51.464;11.964;2023-01-20T08:51:04;19.60;40.50
46932;DHT22;32670;51.464;11.964;2023-01-20T08:53:29;19.70;40.60
46932;DHT22;32670;51.464;11.964;2023-01-20T08:55:56;19.70;40.80
46932;DHT22;32670;51.464;11.964;2023-01-20T08:58:22;19.70;41.00
46932;DHT22;32670;51.464;11.964;2023-01-20T09:00:48;19.70;40.90
46932;DHT22;32670;51.464;11.964;2023-01-20T09:03:13;19.70;40.90
46932;DHT22;32670;51.464;11.964;2023-01-20T09:05:38;19.70;41.00
46932;DHT22;32670;51.464;11.964;2023-01-20T09:08:04;19.70;41.10
46932;DHT22;32670;51.464;11.964;2023-01-20T09:10:33;19.70;41.20
46932;DHT22;32670;51.464;11.964;2023-01-20T09:12:58;19.80;41.30
46932;DHT22;32670;51.464;11.964;2023-01-20T09:15:24;19.80;41.30
46932;DHT22;32670;51.464;11.964;2023-01-20T09:17:49;19.80;41.40
46932;DHT22;32670;51.464;11.964;2023-01-20T09:20:15;19.80;41.40
46932;DHT22;32670;51.464;11.964;2023-01-20T09:22:40;19.80;41.50
46932;DHT22;32670;51.464;11.964;2023-01-20T09:25:07;19.80;41.40
46932;DHT22;32670;51.464;11.964;2023-01-20T09:27:33;19.90;41.60
46932;DHT22;32670;51.464;11.964;2023-01-20T09:29:59;19.90;41.60
46932;DHT22;32670;51.464;11.964;2023-01-20T09:32:24;19.80;41.70
46932;DHT22;32670;51.464;11.964;2023-01-20T09:34:49;19.80;41.70
46932;DHT22;32670;51.464;11.964;2023-01-20T09:37:15;19.90;41.70
46932;DHT22;32670;51.464;11.964;2023-01-20T09:39:59;19.90;41.70
46932;DHT22;32670;51.464;11.964;2023-01-20T09:42:53;19.90;41.70
46932;DHT22;32670;51.464;11.964;2023-01-20T09:45:53;19.90;41.70
46932;DHT22;32670;51.464;11.964;2023-01-20T09:48:33;19.90;41.70
46932;DHT22;32670;51.464;11.964;2023-01-20T09:51:35;19.90;41.70
46932;DHT22;32670;51.464;11.964;2023-01-20T09:54:25;19.90;41.70
46932;DHT22;32670;51.464;11.964;2023-01-20T09:56:53;19.90;41.70
46932;DHT22;32670;51.464;11.964;2023-01-20T09:59:26;19.90;41.80
46932;DHT22;32670;51.464;11.964;2023-01-20T10:01:57;19.90;42.40
46932;DHT22;32670;51.464;11.964;2023-01-20T10:04:34;19.90;42.40
46932;DHT22;32670;51.464;11.964;2023-01-20T10:07:23;20.00;42.40
46932;DHT22;32670;51.464;11.964;2023-01-20T10:12:34;20.00;42.30
46932;DHT22;32670;51.464;11.964;2023-01-20T10:15:29;20.00;42.30
46932;DHT22;32670;51.464;11.964;2023-01-20T10:18:06;20.00;42.30
46932;DHT22;32670;51.464;11.964;2023-01-20T10:23:33;20.00;42.50
46932;DHT22;32670;51.464;11.964;2023-01-20T10:28:37;20.00;43.00
46932;DHT22;32670;51.464;11.964;2023-01-20T10:31:04;20.00;42.80
46932;DHT22;32670;51.464;11.964;2023-01-20T10:33:37;20.00;42.70
46932;DHT22;32670;51.464;11.964;2023-01-20T10:36:09;20.00;42.70
46932;DHT22;32670;51.464;11.964;2023-01-20T10:43:37;20.10;42.70
46932;DHT22;32670;51.464;11.964;2023-01-20T10:49:18;20.10;42.70
46932;DHT22;32670;51.464;11.964;2023-01-20T10:52:09;20.10;42.70
46932;DHT22;32670;51.464;11.964;2023-01-20T10:57:15;20.10;42.70
46932;DHT22;32670;51.464;11.964;2023-01-20T10:59:49;20.10;42.60
46932;DHT22;32670;51.464;11.964;2023-01-20T11:02:39;20.10;42.70
46932;DHT22;32670;51.464;11.964;2023-01-20T11:05:17;20.10;42.70
46932;DHT22;32670;51.464;11.964;2023-01-20T11:07:44;20.10;42.70
46932;DHT22;32670;51.464;11.964;2023-01-20T11:10:19;20.10;42.80
46932;DHT22;32670;51.464;11.964;2023-01-20T11:12:49;20.10;43.80
46932;DHT22;32670;51.464;11.964;2023-01-20T11:15:24;20.10;43.50
46932;DHT22;32670;51.464;11.964;2023-01-20T11:26:31;20.20;43.20
46932;DHT22;32670;51.464;11.964;2023-01-20T11:34:31;20.20;43.20
46932;DHT22;32670;51.464;11.964;2023-01-20T11:39:36;20.20;43.10
46932;DHT22;32670;51.464;11.964;2023-01-20T11:44:50;20.20;43.20
46932;DHT22;32670;51.464;11.964;2023-01-20T11:50:18;20.20;43.60
46932;DHT22;32670;51.464;11.964;2023-01-20T11:52:47;20.20;43.10
46932;DHT22;32670;51.464;11.964;2023-01-20T11:55:21;20.10;43.00
46932;DHT22;32670;51.464;11.964;2023-01-20T11:58:00;20.10;43.00
46932;DHT22;32670;51.464;11.964;2023-01-20T12:00:36;20.20;43.00
46932;DHT22;32670;51.464;11.964;2023-01-20T12:06:12;20.10;43.00
46932;DHT22;32670;51.464;11.964;2023-01-20T12:08:46;20.20;43.10
46932;DHT22;32670;51.464;11.964;2023-01-20T12:11:18;20.20;43.10
46932;DHT22;32670;51.464;11.964;2023-01-20T12:13:56;20.20;43.10
46932;DHT22;32670;51.464;11.964;2023-01-20T12:19:22;20.20;43.20
46932;DHT22;32670;51.464;11.964;2023-01-20T12:21:54;20.20;43.10
46932;DHT22;32670;51.464;11.964;2023-01-20T12:24:26;20.20;43.10
46932;DHT22;32670;51.464;11.964;2023-01-20T12:26:53;20.20;43.10
46932;DHT22;32670;51.464;11.964;2023-01-20T12:29:36;20.20;43.10
46932;DHT22;32670;51.464;11.964;2023-01-20T12:32:08;20.20;43.10
46932;DHT22;32670;51.464;11.964;2023-01-20T12:34:35;20.20;43.10
46932;DHT22;32670;51.464;11.964;2023-01-20T12:37:25;20.20;43.10
46932;DHT22;32670;51.464;11.964;2023-01-20T12:40:06;20.20;43.10
46932;DHT22;32670;51.464;11.964;2023-01-20T12:45:48;20.20;43.10
46932;DHT22;32670;51.464;11.964;2023-01-20T12:48:42;20.20;43.20
46932;DHT22;32670;51.464;11.964;2023-01-20T12:54:16;20.20;43.10
46932;DHT22;32670;51.464;11.964;2023-01-20T12:57:17;20.20;43.10
46932;DHT22;32670;51.464;11.964;2023-01-20T13:00:10;20.20;43.10
46932;DHT22;32670;51.464;11.964;2023-01-20T13:03:12;20.20;43.20
46932;DHT22;32670;51.464;11.964;2023-01-20T13:05:58;20.30;43.20
46932;DHT22;32670;51.464;11.964;2023-01-20T13:08:58;20.30;43.20
46932;DHT22;32670;51.464;11.964;2023-01-20T13:11:44;20.30;43.20
46932;DHT22;32670;51.464;11.964;2023-01-20T13:14:22;20.30;43.20
46932;DHT22;32670;51.464;11.964;2023-01-20T13:16:59;20.30;43.20
46932;DHT22;32670;51.464;11.964;2023-01-20T13:19:28;20.30;43.20
46932;DHT22;32670;51.464;11.964;2023-01-20T13:22:14;20.30;43.20
46932;DHT22;32670;51.464;11.964;2023-01-20T13:24:43;20.30;43.20
46932;DHT22;32670;51.464;11.964;2023-01-20T13:27:09;20.30;43.20
46932;DHT22;32670;51.464;11.964;2023-01-20T13:32:02;20.30;43.20
46932;DHT22;32670;51.464;11.964;2023-01-20T13:34:33;20.30;43.20
46932;DHT22;32670;51.464;11.964;2023-01-20T13:39:43;20.30;43.20
46932;DHT22;32670;51.464;11.964;2023-01-20T13:48:21;20.30;44.20
46932;DHT22;32670;51.464;11.964;2023-01-20T13:50:41;20.30;44.10
46932;DHT22;32670;51.464;11.964;2023-01-20T13:58:21;20.30;44.90
46932;DHT22;32670;51.464;11.964;2023-01-20T14:00:49;20.40;44.70
46932;DHT22;32670;51.464;11.964;2023-01-20T14:05:48;20.40;44.20
46932;DHT22;32670;51.464;11.964;2023-01-20T14:08:14;20.40;44.10
46932;DHT22;32670;51.464;11.964;2023-01-20T14:10:40;20.40;44.10
46932;DHT22;32670;51.464;11.964;2023-01-20T14:13:19;20.40;44.00
46932;DHT22;32670;51.464;11.964;2023-01-20T14:15:51;20.30;43.90
46932;DHT22;32670;51.464;11.964;2023-01-20T14:18:19;20.30;43.90
46932;DHT22;32670;51.464;11.964;2023-01-20T14:21:16;20.40;44.70
46932;DHT22;32670;51.464;11.964;2023-01-20T14:23:43;20.50;45.00
46932;DHT22;32670;51.464;11.964;2023-01-20T14:26:13;20.50;45.60
46932;DHT22;32670;51.464;11.964;2023-01-20T14:28:43;20.50;45.40
46932;DHT22;32670;51.464;11.964;2023-01-20T14:31:37;20.60;45.00
46932;DHT22;32670;51.464;11.964;2023-01-20T14:36:54;20.60;44.60
46932;DHT22;32670;51.464;11.964;2023-01-20T14:39:25;20.50;44.50
46932;DHT22;32670;51.464;11.964;2023-01-20T14:41:54;20.50;44.50
46932;DHT22;32670;51.464;11.964;2023-01-20T14:44:22;20.50;44.50
46932;DHT22;32670;51.464;11.964;2023-01-20T14:46:51;20.50;44.40
46932;DHT22;32670;51.464;11.964;2023-01-20T14:49:18;20.50;44.40
46932;DHT22;32670;51.464;11.964;2023-01-20T14:51:46;20.50;44.40
46932;DHT22;32670;51.464;11.964;2023-01-20T14:54:41;20.50;44.40
46932;DHT22;32670;51.464;11.964;2023-01-20T14:59:42;20.50;44.30
46932;DHT22;32670;51.464;11.964;2023-01-20T15:02:32;20.50;44.30
46932;DHT22;32670;51.464;11.964;2023-01-20T15:04:58;20.40;44.20
46932;DHT22;32670;51.464;11.964;2023-01-20T15:07:23;20.40;44.10
46932;DHT22;32670;51.464;11.964;2023-01-20T15:09:55;20.40;44.10
46932;DHT22;32670;51.464;11.964;2023-01-20T15:12:38;20.40;44.10
46932;DHT22;32670;51.464;11.964;2023-01-20T15:15:18;20.50;44.20
46932;DHT22;32670;51.464;11.964;2023-01-20T15:20:30;20.40;44.10
46932;DHT22;32670;51.464;11.964;2023-01-20T15:22:58;20.50;44.10
46932;DHT22;32670;51.464;11.964;2023-01-20T15:25:25;20.40;44.10
46932;DHT22;32670;51.464;11.964;2023-01-20T15:27:52;20.50;44.10
46932;DHT22;32670;51.464;11.964;2023-01-20T15:30:20;20.50;44.10
46932;DHT22;32670;51.464;11.964;2023-01-20T15:32:49;20.50;44.10
46932;DHT22;32670;51.464;11.964;2023-01-20T15:35:16;20.40;44.00
46932;DHT22;32670;51.464;11.964;2023-01-20T15:37:44;20.50;44.00
46932;DHT22;32670;51.464;11.964;2023-01-20T15:40:14;20.50;44.00
46932;DHT22;32670;51.464;11.964;2023-01-20T15:42:39;20.40;44.50
46932;DHT22;32670;51.464;11.964;2023-01-20T15:45:06;20.50;44.00
46932;DHT22;32670;51.464;11.964;2023-01-20T15:47:32;20.40;44.00
46932;DHT22;32670;51.464;11.964;2023-01-20T15:49:58;20.50;44.00
46932;DHT22;32670;51.464;11.964;2023-01-20T15:52:24;20.50;44.00
46932;DHT22;32670;51.464;11.964;2023-01-20T15:54:50;20.40;43.90
46932;DHT22;32670;51.464;11.964;2023-01-20T15:57:16;20.50;44.00
46932;DHT22;32670;51.464;11.964;2023-01-20T15:59:42;20.50;43.90
46932;DHT22;32670;51.464;11.964;2023-01-20T16:02:20;20.50;44.00
46932;DHT22;32670;51.464;11.964;2023-01-20T16:04:46;20.50;44.00
46932;DHT22;32670;51.464;11.964;2023-01-20T16:07:14;20.40;43.90
46932;DHT22;32670;51.464;11.964;2023-01-20T16:09:41;20.50;44.00
46932;DHT22;32670;51.464;11.964;2023-01-20T16:12:14;20.50;43.90
46932;DHT22;32670;51.464;11.964;2023-01-20T16:14:40;20.50;44.00
46932;DHT22;32670;51.464;11.964;2023-01-20T16:19:37;20.50;43.90
46932;DHT22;32670;51.464;11.964;2023-01-20T16:22:03;20.50;43.90
46932;DHT22;32670;51.464;11.964;2023-01-20T16:24:30;20.50;44.00
46932;DHT22;32670;51.464;11.964;2023-01-20T16:26:56;20.50;44.00
46932;DHT22;32670;51.464;11.964;2023-01-20T16:29:21;20.50;43.80
46932;DHT22;32670;51.464;11.964;2023-01-20T16:31:47;20.50;43.90
46932;DHT22;32670;51.464;11.964;2023-01-20T16:34:12;20.50;43.90
46932;DHT22;32670;51.464;11.964;2023-01-20T16:36:38;20.50;43.90
46932;DHT22;32670;51.464;11.964;2023-01-20T16:39:03;20.50;43.90
46932;DHT22;32670;51.464;11.964;2023-01-20T16:41:29;20.50;43.90
46932;DHT22;32670;51.464;11.964;2023-01-20T16:43:57;20.50;43.90
46932;DHT22;32670;51.464;11.964;2023-01-20T16:46:25;20.50;43.90
46932;DHT22;32670;51.464;11.964;2023-01-20T16:48:51;20.50;43.90
46932;DHT22;32670;51.464;11.964;2023-01-20T16:51:20;20.50;43.90
46932;DHT22;32670;51.464;11.964;2023-01-20T16:53:46;20.40;43.80
46932;DHT22;32670;51.464;11.964;2023-01-20T16:56:13;20.50;43.90
46932;DHT22;32670;51.464;11.964;2023-01-20T16:58:39;20.50;43.90
46932;DHT22;32670;51.464;11.964;2023-01-20T17:01:05;20.50;43.90
46932;DHT22;32670;51.464;11.964;2023-01-20T17:03:38;20.50;43.80
46932;DHT22;32670;51.464;11.964;2023-01-20T17:06:11;20.50;43.90
46932;DHT22;32670;51.464;11.964;2023-01-20T17:08:36;20.50;43.80